createdAt,value
2022-12-23T00:01:33.317Z,5.02
2022-12-23T00:06:41.608Z,5.02
2022-12-23T00:12:04.881Z,5.04
2022-12-23T00:17:22.431Z,5.05
2022-12-23T00:22:50.431Z,5.07
2022-12-23T00:28:03.332Z,5.08
2022-12-23T00:33:11.646Z,5.10
2022-12-23T00:38:42.347Z,5.11
2022-12-23T00:43:49.763Z,5.14
2022-12-23T00:49:16.594Z,5.16
2022-12-23T00:54:25.161Z,5.17
2022-12-23T00:59:33.237Z,5.19
2022-12-23T01:04:59.419Z,5.21
2022-12-23T01:10:08.714Z,5.21
2022-12-23T01:15:17.129Z,5.23
2022-12-23T01:20:26.836Z,5.24
2022-12-23T01:25:36.399Z,5.25
2022-12-23T01:30:45.298Z,5.25
2022-12-23T01:35:53.409Z,5.27
2022-12-23T01:41:01.614Z,5.27
2022-12-23T01:46:09.890Z,5.29
2022-12-23T01:51:22.028Z,5.30
2022-12-23T01:56:36.750Z,5.33
2022-12-23T02:02:09.786Z,5.35
2022-12-23T02:07:37.834Z,5.39
2022-12-23T02:12:54.429Z,5.41
2022-12-23T02:18:29.166Z,5.43
2022-12-23T02:24:15.675Z,5.46
2022-12-23T02:30:04.091Z,5.46
2022-12-23T02:35:16.685Z,5.49
2022-12-23T02:40:33.750Z,5.50
2022-12-23T02:45:48.599Z,5.51
2022-12-23T02:50:59.348Z,5.53
2022-12-23T02:56:10.687Z,5.54
2022-12-23T03:01:20.787Z,5.56
2022-12-23T03:06:32.050Z,5.57
2022-12-23T03:11:53.318Z,5.58
2022-12-23T03:17:11.050Z,5.60
2022-12-23T03:22:25.872Z,5.61
2022-12-23T03:27:39.610Z,5.60
2022-12-23T03:32:55.272Z,5.58
2022-12-23T03:38:05.302Z,5.60
2022-12-23T03:43:17.951Z,5.58
2022-12-23T03:48:32.423Z,5.57
2022-12-23T03:53:45.396Z,5.56
2022-12-23T03:59:00.423Z,5.54
2022-12-23T04:04:13.431Z,5.53
2022-12-23T04:09:23.335Z,5.50
2022-12-23T04:14:30.977Z,5.48
2022-12-23T04:19:39.515Z,5.47
2022-12-23T04:24:47.571Z,5.44
2022-12-23T04:29:55.290Z,5.39
2022-12-23T04:35:03.764Z,5.34
2022-12-23T04:40:13.535Z,5.31
2022-12-23T04:45:21.895Z,5.28
2022-12-23T04:50:30.328Z,5.25
2022-12-23T04:55:38.909Z,5.21
2022-12-23T05:00:47.720Z,5.17
2022-12-23T05:05:56.307Z,5.13
2022-12-23T05:11:04.615Z,5.09
2022-12-23T05:16:13.741Z,5.05
2022-12-23T05:21:22.523Z,4.98
2022-12-23T05:26:30.915Z,5.01
2022-12-23T05:31:39.491Z,5.01
2022-12-23T05:36:47.777Z,5.00
2022-12-23T05:41:55.836Z,4.90
2022-12-23T05:47:04.340Z,4.96
2022-12-23T05:52:12.850Z,4.96
2022-12-23T05:57:21.173Z,4.95
2022-12-23T06:02:29.837Z,4.94
2022-12-23T06:07:38.514Z,4.92
2022-12-23T06:12:47.221Z,4.92
2022-12-23T06:17:57.243Z,4.92
2022-12-23T06:23:05.348Z,4.93
2022-12-23T06:28:13.781Z,4.92
2022-12-23T06:33:22.151Z,4.92
2022-12-23T06:38:30.457Z,4.93
2022-12-23T06:43:38.622Z,4.94
2022-12-23T06:48:47.347Z,4.94
2022-12-23T06:53:55.656Z,4.92
2022-12-23T06:59:04.169Z,4.94
2022-12-23T07:04:12.245Z,4.94
2022-12-23T07:09:20.983Z,4.95
2022-12-23T07:14:29.298Z,4.96
2022-12-23T07:19:37.883Z,4.97
2022-12-23T07:24:46.578Z,4.98
2022-12-23T07:29:55.009Z,4.98
2022-12-23T07:35:04.252Z,5.01
2022-12-23T07:40:16.434Z,5.02
2022-12-23T07:45:25.359Z,5.03
2022-12-23T07:50:33.687Z,5.04
2022-12-23T07:55:41.663Z,5.05
2022-12-23T08:00:50.657Z,5.06
2022-12-23T08:06:06.306Z,5.07
2022-12-23T08:11:16.407Z,5.10
2022-12-23T08:16:24.718Z,5.12
2022-12-23T08:21:34.001Z,5.14
2022-12-23T08:26:42.918Z,5.16
2022-12-23T08:31:52.326Z,5.18
2022-12-23T08:37:01.898Z,5.21
2022-12-23T08:42:11.017Z,5.22
2022-12-23T08:47:20.106Z,5.25
2022-12-23T08:52:30.004Z,5.28
2022-12-23T08:57:39.554Z,5.29
2022-12-23T09:02:49.420Z,5.32
2022-12-23T09:07:58.869Z,5.35
2022-12-23T09:13:08.252Z,5.38
2022-12-23T09:18:16.490Z,5.42
2022-12-23T09:23:25.038Z,5.45
2022-12-23T09:28:33.693Z,5.49
2022-12-23T09:33:42.122Z,5.51
2022-12-23T09:38:55.824Z,5.51
2022-12-23T09:44:21.223Z,5.51
2022-12-23T09:49:30.068Z,5.52
2022-12-23T09:54:47.679Z,5.53
2022-12-23T10:00:09.133Z,5.54
2022-12-23T10:05:28.527Z,5.55
2022-12-23T10:10:41.750Z,5.56
2022-12-23T10:15:53.366Z,5.56
2022-12-23T10:21:06.520Z,5.56
2022-12-23T10:26:22.846Z,5.58
2022-12-23T10:31:44.511Z,5.58
2022-12-23T10:37:00.865Z,5.60
2022-12-23T10:42:21.946Z,5.62
2022-12-23T10:47:45.825Z,5.63
2022-12-23T10:53:00.046Z,5.65
2022-12-23T10:58:16.729Z,5.67
2022-12-23T11:03:29.918Z,5.70
2022-12-23T11:08:40.713Z,5.72
2022-12-23T11:13:51.596Z,5.74
2022-12-23T11:19:03.515Z,5.76
2022-12-23T11:24:18.831Z,5.77
2022-12-23T11:29:30.376Z,5.78
2022-12-23T11:34:40.262Z,5.79
2022-12-23T11:39:50.480Z,5.81
2022-12-23T11:45:01.827Z,5.82
2022-12-23T11:50:30.819Z,5.84
2022-12-23T11:55:44.046Z,5.85
2022-12-23T12:00:58.392Z,5.86
2022-12-23T12:06:08.320Z,5.89
2022-12-23T12:11:23.795Z,5.91
2022-12-23T12:16:53.697Z,5.92
2022-12-23T12:22:08.367Z,5.95
2022-12-23T12:27:17.229Z,5.97
2022-12-23T12:32:32.135Z,5.99
2022-12-23T12:37:48.476Z,6.00
2022-12-23T12:43:04.213Z,6.01
2022-12-23T12:48:33.565Z,6.01
2022-12-23T12:53:53.038Z,6.01
2022-12-23T12:59:02.011Z,6.00
2022-12-23T13:04:39.579Z,6.00
2022-12-23T13:09:59.521Z,5.98
2022-12-23T13:15:21.590Z,5.96
2022-12-23T13:20:37.099Z,5.95
2022-12-23T13:25:52.684Z,5.92
2022-12-23T13:31:10.374Z,5.89
2022-12-23T13:36:36.493Z,5.87
2022-12-23T13:41:47.525Z,5.85
2022-12-23T13:47:07.695Z,5.82
2022-12-23T13:52:23.756Z,5.79
2022-12-23T13:57:50.900Z,5.76
2022-12-23T14:03:23.439Z,5.71
2022-12-23T14:08:43.485Z,5.68
2022-12-23T14:14:00.483Z,5.65
2022-12-23T14:19:41.178Z,5.63
2022-12-23T14:25:33.627Z,5.60
2022-12-23T14:30:51.135Z,5.58
2022-12-23T14:36:30.131Z,5.56
2022-12-23T14:42:05.445Z,5.54
2022-12-23T14:47:35.236Z,5.51
2022-12-23T14:53:09.132Z,5.48
2022-12-23T14:59:05.385Z,5.45
2022-12-23T15:04:24.014Z,5.42
2022-12-23T15:09:48.147Z,5.41
2022-12-23T15:15:06.909Z,5.36
2022-12-23T15:20:24.194Z,5.35
2022-12-23T15:25:34.834Z,5.31
2022-12-23T15:30:54.397Z,5.27
2022-12-23T15:36:06.488Z,5.24
2022-12-23T15:41:22.745Z,5.22
2022-12-23T15:46:33.747Z,5.20
2022-12-23T15:52:07.136Z,5.19
2022-12-23T15:57:22.365Z,5.18
2022-12-23T16:08:30.326Z,5.17
2022-12-23T16:13:44.913Z,5.18
2022-12-23T16:18:57.659Z,5.19
2022-12-23T16:24:09.280Z,5.18
2022-12-23T16:29:19.511Z,5.17
2022-12-23T16:34:33.119Z,5.16
2022-12-23T16:39:43.146Z,5.14
2022-12-23T16:44:51.765Z,5.13
2022-12-23T16:50:00.565Z,5.12
2022-12-23T16:55:16.218Z,5.11
2022-12-23T17:00:25.044Z,5.10
2022-12-23T17:05:33.386Z,5.08
2022-12-23T17:10:45.098Z,5.07
2022-12-23T17:15:54.651Z,5.06
2022-12-23T17:21:03.474Z,5.05
2022-12-23T17:26:12.499Z,5.04
2022-12-23T17:31:27.041Z,5.03
2022-12-23T17:36:36.275Z,5.04
2022-12-23T17:41:46.150Z,5.03
2022-12-23T17:46:54.692Z,5.02
2022-12-23T17:52:03.978Z,5.02
2022-12-23T17:57:21.232Z,5.02
2022-12-23T18:02:33.294Z,5.02
2022-12-23T18:07:42.250Z,5.02
2022-12-23T18:12:54.540Z,5.00
2022-12-23T18:18:03.384Z,5.01
2022-12-23T18:23:15.359Z,5.02
2022-12-23T18:28:24.754Z,5.02
2022-12-23T18:33:33.931Z,5.02
2022-12-23T18:38:42.352Z,5.01
2022-12-23T18:43:50.864Z,5.01
2022-12-23T18:48:59.120Z,5.01
2022-12-23T18:54:08.066Z,5.02
2022-12-23T18:59:27.490Z,5.01
2022-12-23T19:04:39.943Z,5.02
2022-12-23T19:09:48.447Z,5.02
2022-12-23T19:14:57.265Z,5.02
2022-12-23T19:20:06.587Z,5.01
2022-12-23T19:25:21.754Z,5.00
2022-12-23T19:30:30.059Z,4.99
2022-12-23T19:35:39.007Z,4.98
2022-12-23T19:40:47.227Z,4.97
2022-12-23T19:46:03.281Z,4.95
2022-12-23T19:51:13.345Z,4.95
2022-12-23T19:56:23.166Z,4.95
2022-12-23T20:01:32.032Z,4.94
2022-12-23T20:06:42.132Z,4.95
2022-12-23T20:11:51.346Z,4.95
2022-12-23T20:16:59.770Z,4.96
2022-12-23T20:22:08.601Z,4.95
2022-12-23T20:27:32.708Z,4.96
2022-12-23T20:32:41.160Z,4.96
2022-12-23T20:37:49.642Z,4.98
2022-12-23T20:42:58.687Z,4.99
2022-12-23T20:48:07.836Z,5.00
2022-12-23T20:55:33.399Z,5.00
2022-12-23T21:01:14.804Z,5.10
2022-12-23T21:06:24.241Z,5.19
2022-12-23T21:11:34.456Z,5.21
2022-12-23T21:16:43.667Z,5.22
2022-12-23T21:21:52.945Z,5.21
2022-12-23T21:27:01.405Z,5.21
2022-12-23T21:32:10.707Z,5.20
2022-12-23T21:37:19.036Z,5.19
2022-12-23T21:42:27.427Z,5.17
2022-12-23T21:47:35.845Z,5.15
2022-12-23T21:52:44.161Z,5.13
2022-12-23T21:57:53.237Z,5.12
2022-12-23T22:03:02.045Z,5.11
2022-12-23T22:08:10.490Z,5.11
2022-12-23T22:13:18.685Z,5.10
2022-12-23T22:18:27.030Z,5.10
2022-12-23T22:23:35.718Z,5.09
2022-12-23T22:28:44.491Z,5.09
2022-12-23T22:33:53.247Z,5.09
2022-12-23T22:39:02.804Z,5.08
2022-12-23T22:44:11.893Z,5.08
2022-12-23T22:49:20.809Z,5.08
2022-12-23T22:54:29.437Z,5.06
2022-12-23T22:59:38.198Z,5.04
2022-12-23T23:04:47.670Z,5.03
2022-12-23T23:09:56.240Z,5.02
2022-12-23T23:15:04.483Z,4.99
2022-12-23T23:20:14.456Z,4.96
2022-12-23T23:25:23.982Z,4.92
2022-12-23T23:30:32.284Z,4.88
2022-12-23T23:35:40.864Z,4.84
2022-12-23T23:40:50.886Z,4.80
2022-12-23T23:45:59.766Z,4.77
2022-12-23T23:51:11.205Z,4.73
2022-12-23T23:56:25.137Z,4.68
